Skip Navigation LinksHome page > Weather > Current weather Skip Navigation Links

Current Weather

Alert, Nunavut

For information only: do not use for flight planning or navigation.
Latest weather
Observation time Wednesday, July 1, 2015 12:11 PM EDT
Local time Wednesday, July 1, 2015 12:52 PM EDT
Flight conditions Marginal Visual Meteorological Conditions
Winds
Wind direction East (90°)
Wind speed 6 mph
Visibility 9 mi.
Present weather light rain showers
Sky condition
Ceiling 1,300 ft. overcast
Cloud layer scattered clouds 500 ft.
Cloud layer overcast 1,300 ft.
Temperature 37°F
Dewpoint 37°F
Altimeter 29.98 in.Hg
Derived measurements
Relative humidity 100%
Wind chill 33°F
Density altitude -1413 ft.
Sea-level pressure 29.99 in.Hg
Remarks
Special weather observation.
Precipitation very light.
METAR SPECI CYLT 011611Z 09005KT 9SM -SHRA SCT005 OVC013 03/03 A2998 RMK SF3ST4 PCPN VRY LGT SLP157

Settings

Location code

InnerDrive.Weather 4.0.5567.0 Release CLR 4.0.30319.34014
Copyright ©2015 Inner Drive Technology. All rights reserved. Portions Copyright ©1986-2015 David Braverman.

Find weather

Site navigation


Skip Navigation Links

Place info

Page info

PayPal - The safer, easier way to pay online!

Return home.

Copyright ©2015 Inner Drive Technology. Purveyors of fine, hand-crafted computer software. Page printed 2015-07-01T16:52:55 UTC.